sensor_id;sensor_type;location;lat;lon;timestamp;P1;durP1;ratioP1;P2;durP2;ratioP2
70467;SDS011;57934;51.532;7.684;2022-08-18T00:00:53;78.57;;;67.35;;
70467;SDS011;57934;51.532;7.684;2022-08-18T00:03:19;76.30;;;63.85;;
70467;SDS011;57934;51.532;7.684;2022-08-18T00:05:45;75.57;;;63.72;;
70467;SDS011;57934;51.532;7.684;2022-08-18T00:08:11;75.40;;;63.92;;
70467;SDS011;57934;51.532;7.684;2022-08-18T00:10:39;74.82;;;63.25;;
70467;SDS011;57934;51.532;7.684;2022-08-18T00:13:04;70.60;;;61.92;;
70467;SDS011;57934;51.532;7.684;2022-08-18T00:15:30;76.25;;;65.55;;
70467;SDS011;57934;51.532;7.684;2022-08-18T00:17:56;74.55;;;63.85;;
70467;SDS011;57934;51.532;7.684;2022-08-18T00:20:22;73.93;;;63.60;;
70467;SDS011;57934;51.532;7.684;2022-08-18T00:22:49;74.70;;;64.38;;
70467;SDS011;57934;51.532;7.684;2022-08-18T00:25:15;76.30;;;63.80;;
70467;SDS011;57934;51.532;7.684;2022-08-18T00:27:42;73.60;;;63.72;;
70467;SDS011;57934;51.532;7.684;2022-08-18T00:30:10;76.30;;;63.05;;
70467;SDS011;57934;51.532;7.684;2022-08-18T00:32:37;71.93;;;62.95;;
70467;SDS011;57934;51.532;7.684;2022-08-18T00:35:11;76.53;;;65.15;;
70467;SDS011;57934;51.532;7.684;2022-08-18T00:37:38;75.65;;;64.25;;
70467;SDS011;57934;51.532;7.684;2022-08-18T00:40:05;74.55;;;62.60;;
70467;SDS011;57934;51.532;7.684;2022-08-18T00:42:31;67.20;;;59.70;;
70467;SDS011;57934;51.532;7.684;2022-08-18T00:45:00;70.43;;;60.15;;
70467;SDS011;57934;51.532;7.684;2022-08-18T00:47:25;78.68;;;63.97;;
70467;SDS011;57934;51.532;7.684;2022-08-18T00:49:53;76.25;;;64.90;;
70467;SDS011;57934;51.532;7.684;2022-08-18T00:52:19;72.22;;;62.13;;
70467;SDS011;57934;51.532;7.684;2022-08-18T00:54:46;72.32;;;62.15;;
70467;SDS011;57934;51.532;7.684;2022-08-18T00:57:12;73.15;;;62.13;;
70467;SDS011;57934;51.532;7.684;2022-08-18T00:59:44;71.20;;;61.15;;
70467;SDS011;57934;51.532;7.684;2022-08-18T01:02:14;68.03;;;59.30;;
70467;SDS011;57934;51.532;7.684;2022-08-18T01:07:08;68.65;;;60.47;;
70467;SDS011;57934;51.532;7.684;2022-08-18T01:09:35;71.10;;;61.10;;
70467;SDS011;57934;51.532;7.684;2022-08-18T01:12:00;75.55;;;61.15;;
70467;SDS011;57934;51.532;7.684;2022-08-18T01:14:26;73.55;;;61.83;;
70467;SDS011;57934;51.532;7.684;2022-08-18T01:16:52;75.55;;;64.07;;
70467;SDS011;57934;51.532;7.684;2022-08-18T01:19:37;76.30;;;63.10;;
70467;SDS011;57934;51.532;7.684;2022-08-18T01:22:34;75.40;;;63.97;;
70467;SDS011;57934;51.532;7.684;2022-08-18T01:25:00;76.80;;;61.90;;
70467;SDS011;57934;51.532;7.684;2022-08-18T01:27:45;74.43;;;63.75;;
70467;SDS011;57934;51.532;7.684;2022-08-18T01:30:15;76.05;;;63.40;;
70467;SDS011;57934;51.532;7.684;2022-08-18T01:32:42;76.82;;;64.32;;
70467;SDS011;57934;51.532;7.684;2022-08-18T01:35:11;73.13;;;61.60;;
70467;SDS011;57934;51.532;7.684;2022-08-18T01:37:37;75.00;;;61.67;;
70467;SDS011;57934;51.532;7.684;2022-08-18T01:40:04;71.72;;;59.08;;
70467;SDS011;57934;51.532;7.684;2022-08-18T01:42:31;75.63;;;63.40;;
70467;SDS011;57934;51.532;7.684;2022-08-18T01:44:57;71.47;;;60.80;;
70467;SDS011;57934;51.532;7.684;2022-08-18T01:47:23;76.15;;;62.03;;
70467;SDS011;57934;51.532;7.684;2022-08-18T01:49:49;72.07;;;60.78;;
70467;SDS011;57934;51.532;7.684;2022-08-18T01:52:15;77.63;;;62.70;;
70467;SDS011;57934;51.532;7.684;2022-08-18T01:54:43;75.55;;;63.08;;
70467;SDS011;57934;51.532;7.684;2022-08-18T01:57:09;75.97;;;61.67;;
70467;SDS011;57934;51.532;7.684;2022-08-18T01:59:37;76.93;;;61.95;;
70467;SDS011;57934;51.532;7.684;2022-08-18T02:02:03;80.13;;;64.68;;
70467;SDS011;57934;51.532;7.684;2022-08-18T02:04:29;74.88;;;64.07;;
70467;SDS011;57934;51.532;7.684;2022-08-18T02:06:58;72.88;;;61.58;;
70467;SDS011;57934;51.532;7.684;2022-08-18T02:09:23;79.28;;;65.35;;
70467;SDS011;57934;51.532;7.684;2022-08-18T02:11:49;78.00;;;65.68;;
70467;SDS011;57934;51.532;7.684;2022-08-18T02:14:15;77.03;;;64.10;;
70467;SDS011;57934;51.532;7.684;2022-08-18T02:16:40;76.90;;;65.22;;
70467;SDS011;57934;51.532;7.684;2022-08-18T02:19:06;78.68;;;64.80;;
70467;SDS011;57934;51.532;7.684;2022-08-18T02:21:32;83.15;;;67.40;;
70467;SDS011;57934;51.532;7.684;2022-08-18T02:23:58;80.45;;;67.10;;
70467;SDS011;57934;51.532;7.684;2022-08-18T02:26:23;76.55;;;64.25;;
70467;SDS011;57934;51.532;7.684;2022-08-18T02:28:49;80.38;;;65.35;;
70467;SDS011;57934;51.532;7.684;2022-08-18T02:31:17;81.15;;;65.03;;
70467;SDS011;57934;51.532;7.684;2022-08-18T02:33:44;73.53;;;62.05;;
70467;SDS011;57934;51.532;7.684;2022-08-18T02:36:10;77.68;;;64.45;;
70467;SDS011;57934;51.532;7.684;2022-08-18T02:38:36;76.15;;;63.53;;
70467;SDS011;57934;51.532;7.684;2022-08-18T02:41:03;73.55;;;63.15;;
70467;SDS011;57934;51.532;7.684;2022-08-18T02:43:31;74.07;;;61.97;;
70467;SDS011;57934;51.532;7.684;2022-08-18T02:45:57;76.22;;;63.42;;
70467;SDS011;57934;51.532;7.684;2022-08-18T02:48:22;75.18;;;61.97;;
70467;SDS011;57934;51.532;7.684;2022-08-18T02:51:04;73.57;;;61.90;;
70467;SDS011;57934;51.532;7.684;2022-08-18T02:53:30;76.10;;;61.05;;
70467;SDS011;57934;51.532;7.684;2022-08-18T02:56:06;74.13;;;60.92;;
70467;SDS011;57934;51.532;7.684;2022-08-18T02:58:41;78.72;;;64.25;;
70467;SDS011;57934;51.532;7.684;2022-08-18T03:01:07;80.10;;;63.20;;
70467;SDS011;57934;51.532;7.684;2022-08-18T03:03:33;75.70;;;61.78;;
70467;SDS011;57934;51.532;7.684;2022-08-18T03:05:58;77.40;;;62.72;;
70467;SDS011;57934;51.532;7.684;2022-08-18T03:08:24;74.68;;;63.20;;
70467;SDS011;57934;51.532;7.684;2022-08-18T03:10:51;76.50;;;62.47;;
70467;SDS011;57934;51.532;7.684;2022-08-18T03:13:17;75.63;;;61.78;;
70467;SDS011;57934;51.532;7.684;2022-08-18T03:15:43;75.20;;;61.13;;
70467;SDS011;57934;51.532;7.684;2022-08-18T03:18:09;81.18;;;65.53;;
70467;SDS011;57934;51.532;7.684;2022-08-18T03:20:36;78.68;;;64.20;;
70467;SDS011;57934;51.532;7.684;2022-08-18T03:23:02;75.82;;;62.53;;
70467;SDS011;57934;51.532;7.684;2022-08-18T03:25:28;79.55;;;64.10;;
70467;SDS011;57934;51.532;7.684;2022-08-18T03:27:54;77.75;;;61.83;;
70467;SDS011;57934;51.532;7.684;2022-08-18T03:30:20;74.35;;;62.90;;
70467;SDS011;57934;51.532;7.684;2022-08-18T03:32:46;77.35;;;63.45;;
70467;SDS011;57934;51.532;7.684;2022-08-18T03:35:12;75.55;;;62.15;;
70467;SDS011;57934;51.532;7.684;2022-08-18T03:37:39;78.60;;;63.35;;
70467;SDS011;57934;51.532;7.684;2022-08-18T03:40:05;79.68;;;63.53;;
70467;SDS011;57934;51.532;7.684;2022-08-18T03:42:31;81.68;;;64.82;;
70467;SDS011;57934;51.532;7.684;2022-08-18T03:44:57;78.93;;;60.72;;
70467;SDS011;57934;51.532;7.684;2022-08-18T03:47:23;75.63;;;60.47;;
70467;SDS011;57934;51.532;7.684;2022-08-18T03:49:48;81.43;;;64.40;;
70467;SDS011;57934;51.532;7.684;2022-08-18T03:52:14;80.13;;;63.90;;
70467;SDS011;57934;51.532;7.684;2022-08-18T03:54:40;79.75;;;62.10;;
70467;SDS011;57934;51.532;7.684;2022-08-18T03:57:06;88.65;;;65.68;;
70467;SDS011;57934;51.532;7.684;2022-08-18T03:59:32;100.25;;;69.20;;
70467;SDS011;57934;51.532;7.684;2022-08-18T04:01:58;107.18;;;71.53;;
70467;SDS011;57934;51.532;7.684;2022-08-18T04:04:25;111.40;;;73.10;;
70467;SDS011;57934;51.532;7.684;2022-08-18T04:06:55;107.38;;;71.50;;
70467;SDS011;57934;51.532;7.684;2022-08-18T04:09:23;115.18;;;74.63;;
70467;SDS011;57934;51.532;7.684;2022-08-18T04:11:49;113.55;;;73.05;;
70467;SDS011;57934;51.532;7.684;2022-08-18T04:14:16;108.97;;;73.50;;
70467;SDS011;57934;51.532;7.684;2022-08-18T04:16:42;99.25;;;69.78;;
70467;SDS011;57934;51.532;7.684;2022-08-18T04:19:08;114.07;;;73.30;;
70467;SDS011;57934;51.532;7.684;2022-08-18T04:21:35;111.68;;;70.30;;
70467;SDS011;57934;51.532;7.684;2022-08-18T04:24:02;105.38;;;68.35;;
70467;SDS011;57934;51.532;7.684;2022-08-18T04:26:30;102.13;;;67.07;;
70467;SDS011;57934;51.532;7.684;2022-08-18T04:28:56;100.50;;;65.70;;
70467;SDS011;57934;51.532;7.684;2022-08-18T04:31:25;106.80;;;67.93;;
70467;SDS011;57934;51.532;7.684;2022-08-18T04:33:51;101.88;;;64.43;;
70467;SDS011;57934;51.532;7.684;2022-08-18T04:36:17;107.78;;;66.53;;
70467;SDS011;57934;51.532;7.684;2022-08-18T04:38:43;101.40;;;64.47;;
70467;SDS011;57934;51.532;7.684;2022-08-18T04:41:10;101.35;;;65.25;;
70467;SDS011;57934;51.532;7.684;2022-08-18T04:43:36;100.65;;;64.57;;
70467;SDS011;57934;51.532;7.684;2022-08-18T04:46:03;97.80;;;63.13;;
70467;SDS011;57934;51.532;7.684;2022-08-18T04:48:30;93.22;;;62.10;;
70467;SDS011;57934;51.532;7.684;2022-08-18T04:51:08;90.68;;;63.28;;
70467;SDS011;57934;51.532;7.684;2022-08-18T04:53:34;89.03;;;61.97;;
70467;SDS011;57934;51.532;7.684;2022-08-18T04:56:19;94.32;;;63.33;;
70467;SDS011;57934;51.532;7.684;2022-08-18T04:58:46;86.93;;;59.72;;
70467;SDS011;57934;51.532;7.684;2022-08-18T05:01:17;93.93;;;62.78;;
70467;SDS011;57934;51.532;7.684;2022-08-18T05:03:43;95.22;;;61.75;;
70467;SDS011;57934;51.532;7.684;2022-08-18T05:06:09;88.57;;;60.33;;
70467;SDS011;57934;51.532;7.684;2022-08-18T05:08:35;89.70;;;61.75;;
70467;SDS011;57934;51.532;7.684;2022-08-18T05:11:00;90.15;;;61.75;;
70467;SDS011;57934;51.532;7.684;2022-08-18T05:13:26;89.00;;;60.90;;
70467;SDS011;57934;51.532;7.684;2022-08-18T05:15:56;87.63;;;60.72;;
70467;SDS011;57934;51.532;7.684;2022-08-18T05:18:25;85.18;;;61.65;;
70467;SDS011;57934;51.532;7.684;2022-08-18T05:20:51;79.55;;;57.13;;
70467;SDS011;57934;51.532;7.684;2022-08-18T05:23:17;87.32;;;60.15;;
70467;SDS011;57934;51.532;7.684;2022-08-18T05:25:43;90.70;;;62.90;;
70467;SDS011;57934;51.532;7.684;2022-08-18T05:28:09;91.55;;;59.55;;
70467;SDS011;57934;51.532;7.684;2022-08-18T05:30:35;100.18;;;63.65;;
70467;SDS011;57934;51.532;7.684;2022-08-18T05:33:01;97.30;;;63.20;;
70467;SDS011;57934;51.532;7.684;2022-08-18T05:35:30;99.68;;;65.43;;
70467;SDS011;57934;51.532;7.684;2022-08-18T05:38:49;102.47;;;65.18;;
70467;SDS011;57934;51.532;7.684;2022-08-18T05:40:44;101.93;;;65.78;;
70467;SDS011;57934;51.532;7.684;2022-08-18T05:43:14;102.35;;;66.97;;
70467;SDS011;57934;51.532;7.684;2022-08-18T05:45:40;97.22;;;65.05;;
70467;SDS011;57934;51.532;7.684;2022-08-18T05:48:07;103.32;;;67.82;;
70467;SDS011;57934;51.532;7.684;2022-08-18T05:50:33;100.28;;;66.45;;
70467;SDS011;57934;51.532;7.684;2022-08-18T05:53:06;108.47;;;69.38;;
70467;SDS011;57934;51.532;7.684;2022-08-18T05:55:42;107.68;;;66.07;;
70467;SDS011;57934;51.532;7.684;2022-08-18T05:58:29;105.00;;;66.53;;
70467;SDS011;57934;51.532;7.684;2022-08-18T06:01:02;108.05;;;67.32;;
70467;SDS011;57934;51.532;7.684;2022-08-18T06:03:31;106.80;;;65.88;;
70467;SDS011;57934;51.532;7.684;2022-08-18T06:06:00;103.18;;;64.40;;
70467;SDS011;57934;51.532;7.684;2022-08-18T06:08:36;102.93;;;64.07;;
70467;SDS011;57934;51.532;7.684;2022-08-18T06:11:03;108.78;;;65.97;;
70467;SDS011;57934;51.532;7.684;2022-08-18T06:13:29;104.75;;;63.03;;
70467;SDS011;57934;51.532;7.684;2022-08-18T06:16:11;108.93;;;63.45;;
70467;SDS011;57934;51.532;7.684;2022-08-18T06:18:58;115.80;;;65.72;;
70467;SDS011;57934;51.532;7.684;2022-08-18T06:21:35;113.75;;;65.15;;
70467;SDS011;57934;51.532;7.684;2022-08-18T06:26:45;115.95;;;65.60;;
70467;SDS011;57934;51.532;7.684;2022-08-18T06:31:44;119.45;;;68.47;;
70467;SDS011;57934;51.532;7.684;2022-08-18T06:37:02;112.88;;;66.13;;
70467;SDS011;57934;51.532;7.684;2022-08-18T06:39:35;113.00;;;65.80;;
70467;SDS011;57934;51.532;7.684;2022-08-18T06:42:04;108.07;;;64.38;;
70467;SDS011;57934;51.532;7.684;2022-08-18T06:52:16;109.40;;;62.78;;
70467;SDS011;57934;51.532;7.684;2022-08-18T06:54:42;107.80;;;64.35;;
70467;SDS011;57934;51.532;7.684;2022-08-18T06:57:08;108.35;;;63.55;;
70467;SDS011;57934;51.532;7.684;2022-08-18T06:59:52;110.03;;;62.67;;
70467;SDS011;57934;51.532;7.684;2022-08-18T07:02:23;116.97;;;66.78;;
70467;SDS011;57934;51.532;7.684;2022-08-18T07:07:45;111.28;;;65.05;;
70467;SDS011;57934;51.532;7.684;2022-08-18T07:12:40;114.47;;;66.25;;
70467;SDS011;57934;51.532;7.684;2022-08-18T07:15:07;109.85;;;62.45;;
70467;SDS011;57934;51.532;7.684;2022-08-18T07:17:35;108.53;;;62.90;;
70467;SDS011;57934;51.532;7.684;2022-08-18T07:20:07;116.97;;;65.43;;
70467;SDS011;57934;51.532;7.684;2022-08-18T07:25:22;113.07;;;66.27;;
70467;SDS011;57934;51.532;7.684;2022-08-18T07:27:49;114.03;;;65.72;;
70467;SDS011;57934;51.532;7.684;2022-08-18T07:32:45;111.55;;;65.90;;
70467;SDS011;57934;51.532;7.684;2022-08-18T07:35:14;114.00;;;64.28;;
70467;SDS011;57934;51.532;7.684;2022-08-18T07:37:43;117.97;;;65.80;;
70467;SDS011;57934;51.532;7.684;2022-08-18T07:42:42;123.97;;;69.63;;
70467;SDS011;57934;51.532;7.684;2022-08-18T07:45:22;111.13;;;65.35;;
70467;SDS011;57934;51.532;7.684;2022-08-18T07:48:06;110.78;;;65.20;;
70467;SDS011;57934;51.532;7.684;2022-08-18T07:55:27;103.38;;;61.38;;
70467;SDS011;57934;51.532;7.684;2022-08-18T08:00:24;106.22;;;59.92;;
70467;SDS011;57934;51.532;7.684;2022-08-18T08:02:57;106.00;;;59.25;;
70467;SDS011;57934;51.532;7.684;2022-08-18T08:08:01;106.13;;;60.28;;
70467;SDS011;57934;51.532;7.684;2022-08-18T08:10:35;106.90;;;59.28;;
70467;SDS011;57934;51.532;7.684;2022-08-18T08:15:47;108.82;;;59.58;;
70467;SDS011;57934;51.532;7.684;2022-08-18T08:20:53;102.43;;;59.65;;
70467;SDS011;57934;51.532;7.684;2022-08-18T08:33:30;113.55;;;63.33;;
70467;SDS011;57934;51.532;7.684;2022-08-18T08:36:20;107.82;;;59.58;;
70467;SDS011;57934;51.532;7.684;2022-08-18T08:38:45;102.88;;;60.10;;
70467;SDS011;57934;51.532;7.684;2022-08-18T08:41:19;103.82;;;58.70;;
70467;SDS011;57934;51.532;7.684;2022-08-18T08:43:48;111.03;;;62.22;;
70467;SDS011;57934;51.532;7.684;2022-08-18T08:46:19;109.47;;;60.05;;
70467;SDS011;57934;51.532;7.684;2022-08-18T08:48:49;119.78;;;63.47;;
70467;SDS011;57934;51.532;7.684;2022-08-18T08:51:28;107.22;;;61.50;;
70467;SDS011;57934;51.532;7.684;2022-08-18T08:54:02;107.28;;;60.17;;
70467;SDS011;57934;51.532;7.684;2022-08-18T08:56:30;113.38;;;62.50;;
70467;SDS011;57934;51.532;7.684;2022-08-18T08:58:59;109.88;;;60.83;;
70467;SDS011;57934;51.532;7.684;2022-08-18T09:01:46;109.80;;;59.75;;
70467;SDS011;57934;51.532;7.684;2022-08-18T09:21:56;99.95;;;57.72;;
70467;SDS011;57934;51.532;7.684;2022-08-18T09:34:47;91.10;;;55.17;;
70467;SDS011;57934;51.532;7.684;2022-08-18T09:37:19;96.78;;;55.63;;
70467;SDS011;57934;51.532;7.684;2022-08-18T09:39:51;99.75;;;57.95;;
70467;SDS011;57934;51.532;7.684;2022-08-18T09:42:40;96.50;;;57.17;;
70467;SDS011;57934;51.532;7.684;2022-08-18T09:45:54;97.82;;;55.97;;
70467;SDS011;57934;51.532;7.684;2022-08-18T09:53:13;88.88;;;54.63;;
70467;SDS011;57934;51.532;7.684;2022-08-18T09:55:41;79.75;;;51.33;;
70467;SDS011;57934;51.532;7.684;2022-08-18T10:03:35;92.93;;;54.25;;
70467;SDS011;57934;51.532;7.684;2022-08-18T10:06:03;88.55;;;53.70;;
70467;SDS011;57934;51.532;7.684;2022-08-18T10:11:15;89.22;;;53.65;;
70467;SDS011;57934;51.532;7.684;2022-08-18T10:18:59;82.15;;;49.78;;
70467;SDS011;57934;51.532;7.684;2022-08-18T10:21:27;77.78;;;48.78;;
70467;SDS011;57934;51.532;7.684;2022-08-18T10:23:57;80.20;;;48.30;;
70467;SDS011;57934;51.532;7.684;2022-08-18T10:34:35;76.00;;;47.08;;
70467;SDS011;57934;51.532;7.684;2022-08-18T10:37:03;73.05;;;46.45;;
70467;SDS011;57934;51.532;7.684;2022-08-18T10:42:03;74.28;;;47.13;;
70467;SDS011;57934;51.532;7.684;2022-08-18T10:44:30;72.07;;;46.78;;
70467;SDS011;57934;51.532;7.684;2022-08-18T10:46:58;77.15;;;48.03;;
70467;SDS011;57934;51.532;7.684;2022-08-18T10:49:26;70.10;;;43.55;;
70467;SDS011;57934;51.532;7.684;2022-08-18T10:57:15;63.85;;;43.67;;
70467;SDS011;57934;51.532;7.684;2022-08-18T10:59:51;68.53;;;45.40;;
70467;SDS011;57934;51.532;7.684;2022-08-18T11:05:06;65.70;;;43.17;;
70467;SDS011;57934;51.532;7.684;2022-08-18T11:07:34;62.63;;;41.55;;
70467;SDS011;57934;51.532;7.684;2022-08-18T11:10:00;62.85;;;40.88;;
70467;SDS011;57934;51.532;7.684;2022-08-18T11:18:07;62.25;;;40.35;;
70467;SDS011;57934;51.532;7.684;2022-08-18T11:20:37;60.60;;;39.53;;
70467;SDS011;57934;51.532;7.684;2022-08-18T11:23:10;61.83;;;40.47;;
70467;SDS011;57934;51.532;7.684;2022-08-18T11:25:36;63.67;;;39.83;;
70467;SDS011;57934;51.532;7.684;2022-08-18T11:28:02;54.70;;;37.97;;
70467;SDS011;57934;51.532;7.684;2022-08-18T11:30:39;61.28;;;41.47;;
70467;SDS011;57934;51.532;7.684;2022-08-18T11:33:06;54.97;;;38.75;;
70467;SDS011;57934;51.532;7.684;2022-08-18T11:35:33;61.35;;;41.95;;
70467;SDS011;57934;51.532;7.684;2022-08-18T11:38:01;55.80;;;39.20;;
70467;SDS011;57934;51.532;7.684;2022-08-18T11:40:37;64.80;;;41.95;;
70467;SDS011;57934;51.532;7.684;2022-08-18T11:45:59;60.17;;;38.17;;
70467;SDS011;57934;51.532;7.684;2022-08-18T11:48:36;54.08;;;36.85;;
70467;SDS011;57934;51.532;7.684;2022-08-18T11:56:21;51.78;;;36.67;;
70467;SDS011;57934;51.532;7.684;2022-08-18T11:58:53;58.40;;;38.55;;
70467;SDS011;57934;51.532;7.684;2022-08-18T12:06:39;54.03;;;38.95;;
70467;SDS011;57934;51.532;7.684;2022-08-18T12:09:11;50.80;;;38.33;;
70467;SDS011;57934;51.532;7.684;2022-08-18T12:11:48;46.42;;;35.95;;
70467;SDS011;57934;51.532;7.684;2022-08-18T12:14:18;49.90;;;38.33;;
70467;SDS011;57934;51.532;7.684;2022-08-18T12:16:46;51.40;;;36.97;;
70467;SDS011;57934;51.532;7.684;2022-08-18T12:19:12;52.78;;;36.53;;
70467;SDS011;57934;51.532;7.684;2022-08-18T12:21:39;50.75;;;37.15;;
70467;SDS011;57934;51.532;7.684;2022-08-18T12:24:07;53.20;;;38.67;;
70467;SDS011;57934;51.532;7.684;2022-08-18T12:26:34;51.75;;;38.03;;
70467;SDS011;57934;51.532;7.684;2022-08-18T12:29:00;51.72;;;37.28;;
70467;SDS011;57934;51.532;7.684;2022-08-18T12:31:26;51.55;;;37.78;;
70467;SDS011;57934;51.532;7.684;2022-08-18T12:33:51;55.03;;;37.40;;
70467;SDS011;57934;51.532;7.684;2022-08-18T12:36:17;54.78;;;39.17;;
70467;SDS011;57934;51.532;7.684;2022-08-18T12:38:43;49.40;;;36.25;;
70467;SDS011;57934;51.532;7.684;2022-08-18T12:41:09;46.63;;;35.40;;
70467;SDS011;57934;51.532;7.684;2022-08-18T12:43:37;50.30;;;37.55;;
70467;SDS011;57934;51.532;7.684;2022-08-18T12:46:03;51.00;;;36.35;;
70467;SDS011;57934;51.532;7.684;2022-08-18T12:48:29;48.42;;;34.63;;
70467;SDS011;57934;51.532;7.684;2022-08-18T12:50:56;46.50;;;35.30;;
70467;SDS011;57934;51.532;7.684;2022-08-18T12:53:25;51.22;;;36.90;;
70467;SDS011;57934;51.532;7.684;2022-08-18T12:55:51;51.10;;;36.63;;
70467;SDS011;57934;51.532;7.684;2022-08-18T12:58:17;45.70;;;34.53;;
70467;SDS011;57934;51.532;7.684;2022-08-18T13:00:43;44.00;;;33.78;;
70467;SDS011;57934;51.532;7.684;2022-08-18T13:03:08;42.78;;;32.28;;
70467;SDS011;57934;51.532;7.684;2022-08-18T13:05:34;50.45;;;37.83;;
70467;SDS011;57934;51.532;7.684;2022-08-18T13:08:03;48.33;;;36.10;;
70467;SDS011;57934;51.532;7.684;2022-08-18T13:10:30;44.83;;;34.85;;
70467;SDS011;57934;51.532;7.684;2022-08-18T13:12:56;50.13;;;36.20;;
70467;SDS011;57934;51.532;7.684;2022-08-18T20:58:15;8.82;;;8.02;;
70467;SDS011;57934;51.532;7.684;2022-08-18T21:00:43;9.10;;;8.20;;
70467;SDS011;57934;51.532;7.684;2022-08-18T21:03:11;8.45;;;7.50;;
70467;SDS011;57934;51.532;7.684;2022-08-18T21:05:39;8.98;;;8.10;;
70467;SDS011;57934;51.532;7.684;2022-08-18T21:10:48;9.25;;;8.23;;
70467;SDS011;57934;51.532;7.684;2022-08-18T21:13:26;8.85;;;7.60;;
70467;SDS011;57934;51.532;7.684;2022-08-18T21:15:52;8.98;;;8.07;;
70467;SDS011;57934;51.532;7.684;2022-08-18T21:18:21;9.00;;;8.00;;
70467;SDS011;57934;51.532;7.684;2022-08-18T21:20:48;7.97;;;7.13;;
70467;SDS011;57934;51.532;7.684;2022-08-18T21:23:20;12.75;;;8.23;;
70467;SDS011;57934;51.532;7.684;2022-08-18T21:25:48;8.77;;;7.85;;
70467;SDS011;57934;51.532;7.684;2022-08-18T21:28:15;8.32;;;7.53;;
70467;SDS011;57934;51.532;7.684;2022-08-18T21:30:52;8.40;;;7.60;;
70467;SDS011;57934;51.532;7.684;2022-08-18T21:33:18;8.32;;;7.45;;
70467;SDS011;57934;51.532;7.684;2022-08-18T21:35:45;8.80;;;7.90;;
70467;SDS011;57934;51.532;7.684;2022-08-18T21:38:11;8.80;;;7.97;;
70467;SDS011;57934;51.532;7.684;2022-08-18T21:40:45;10.25;;;7.70;;
70467;SDS011;57934;51.532;7.684;2022-08-18T21:43:12;8.10;;;7.25;;
70467;SDS011;57934;51.532;7.684;2022-08-18T21:45:43;7.78;;;7.13;;
70467;SDS011;57934;51.532;7.684;2022-08-18T21:48:10;7.65;;;7.03;;
70467;SDS011;57934;51.532;7.684;2022-08-18T21:50:36;8.30;;;7.50;;
70467;SDS011;57934;51.532;7.684;2022-08-18T21:53:03;8.90;;;8.15;;
70467;SDS011;57934;51.532;7.684;2022-08-18T21:57:58;11.40;;;7.55;;
70467;SDS011;57934;51.532;7.684;2022-08-18T22:00:26;9.07;;;8.23;;
70467;SDS011;57934;51.532;7.684;2022-08-18T22:05:43;8.80;;;7.43;;
70467;SDS011;57934;51.532;7.684;2022-08-18T22:08:16;8.20;;;7.40;;
70467;SDS011;57934;51.532;7.684;2022-08-18T22:10:42;8.50;;;7.70;;
70467;SDS011;57934;51.532;7.684;2022-08-18T22:13:27;7.85;;;7.20;;
70467;SDS011;57934;51.532;7.684;2022-08-18T22:16:25;9.05;;;7.97;;
70467;SDS011;57934;51.532;7.684;2022-08-18T22:21:46;8.10;;;7.30;;
70467;SDS011;57934;51.532;7.684;2022-08-18T22:24:16;9.50;;;7.20;;
70467;SDS011;57934;51.532;7.684;2022-08-18T22:26:47;9.35;;;8.00;;
70467;SDS011;57934;51.532;7.684;2022-08-18T22:29:25;9.98;;;7.55;;
70467;SDS011;57934;51.532;7.684;2022-08-18T22:31:52;8.27;;;7.47;;
70467;SDS011;57934;51.532;7.684;2022-08-18T22:34:20;8.60;;;7.80;;
70467;SDS011;57934;51.532;7.684;2022-08-18T22:36:57;8.23;;;7.47;;
70467;SDS011;57934;51.532;7.684;2022-08-18T22:39:27;8.40;;;7.60;;
70467;SDS011;57934;51.532;7.684;2022-08-18T22:41:54;8.52;;;7.65;;
70467;SDS011;57934;51.532;7.684;2022-08-18T22:44:20;8.10;;;7.40;;
70467;SDS011;57934;51.532;7.684;2022-08-18T22:46:46;8.57;;;7.47;;
70467;SDS011;57934;51.532;7.684;2022-08-18T22:49:12;8.63;;;7.68;;
70467;SDS011;57934;51.532;7.684;2022-08-18T22:51:38;7.80;;;7.00;;
70467;SDS011;57934;51.532;7.684;2022-08-18T22:54:04;9.05;;;8.25;;
70467;SDS011;57934;51.532;7.684;2022-08-18T22:56:36;9.07;;;8.05;;
70467;SDS011;57934;51.532;7.684;2022-08-18T22:59:03;8.80;;;8.10;;
70467;SDS011;57934;51.532;7.684;2022-08-18T23:01:30;10.75;;;8.38;;
70467;SDS011;57934;51.532;7.684;2022-08-18T23:03:55;12.13;;;8.80;;
70467;SDS011;57934;51.532;7.684;2022-08-18T23:06:21;10.00;;;9.10;;
70467;SDS011;57934;51.532;7.684;2022-08-18T23:08:47;10.52;;;8.95;;
70467;SDS011;57934;51.532;7.684;2022-08-18T23:11:13;9.27;;;8.25;;
70467;SDS011;57934;51.532;7.684;2022-08-18T23:13:39;8.60;;;7.80;;
70467;SDS011;57934;51.532;7.684;2022-08-18T23:16:05;11.23;;;9.10;;
70467;SDS011;57934;51.532;7.684;2022-08-18T23:18:31;9.27;;;8.40;;
70467;SDS011;57934;51.532;7.684;2022-08-18T23:20:57;11.80;;;7.82;;
70467;SDS011;57934;51.532;7.684;2022-08-18T23:23:24;9.32;;;7.65;;
70467;SDS011;57934;51.532;7.684;2022-08-18T23:25:50;9.57;;;8.70;;
70467;SDS011;57934;51.532;7.684;2022-08-18T23:28:17;11.98;;;8.70;;
70467;SDS011;57934;51.532;7.684;2022-08-18T23:30:44;10.48;;;8.70;;
70467;SDS011;57934;51.532;7.684;2022-08-18T23:33:11;10.10;;;9.10;;
70467;SDS011;57934;51.532;7.684;2022-08-18T23:35:37;11.02;;;9.40;;
70467;SDS011;57934;51.532;7.684;2022-08-18T23:38:04;12.02;;;9.48;;
70467;SDS011;57934;51.532;7.684;2022-08-18T23:40:32;11.63;;;10.35;;
70467;SDS011;57934;51.532;7.684;2022-08-18T23:42:58;12.02;;;10.77;;
70467;SDS011;57934;51.532;7.684;2022-08-18T23:45:24;12.27;;;11.00;;
70467;SDS011;57934;51.532;7.684;2022-08-18T23:47:50;12.93;;;11.60;;
70467;SDS011;57934;51.532;7.684;2022-08-18T23:50:17;13.00;;;11.70;;
70467;SDS011;57934;51.532;7.684;2022-08-18T23:52:43;13.45;;;12.10;;
70467;SDS011;57934;51.532;7.684;2022-08-18T23:55:10;13.63;;;12.27;;
70467;SDS011;57934;51.532;7.684;2022-08-18T23:57:36;13.70;;;12.27;;
